SKPC/PCR METAR and TAF weather

Enter ICAO airport designator
Station Type Date Time Source
SKPC METAR 2019/12/07 00:00 UTC NOAA

SKPC 070000Z 36006KT 9999 FEW020 29/23 A2979


Station Type Date Time Source
SKPC Decoded METAR 2019/12/07 00:00 UTC NOAA

Puerto Carreno / A. Guauquea, Colombia (SKPC) 06-10N 067-30W
Dec 06, 2019 - 07:00 PM EST / 2019.12.07 0000 UTC
Wind: from the N (360 degrees) at 7 MPH (6 KT):0
Visibility: greater than 7 mile(s):0
Sky conditions: mostly clear
Temperature: 84 F (29 C)
Dew Point: 73 F (23 C)
Relative Humidity: 70%
Pressure (altimeter): 29.79 in. Hg (1008 hPa)
ob: SKPC 070000Z 36006KT 9999 FEW020 29/23 A2979
cycle: 0

Station Type Date Time Source
SKPC TAF UTC NOAA

Error!

Example: see airport list